Terminal Aerodrome Forecast
Issued by NWS Medford, OR

Home | Current Version | Previous Version | Text Only | Print | Product List | Glossary On
Versions: 1 2 3 4 5 6 7 8 9 10 11 12 13
000
FTUS46 KMFR 010520
TAFMFR
TAF
KMFR 010520Z 0106/0206 VRB03KT 3SM FU SCT090 BKN250
     FM012200 32010KT 3SM FU BKN090 BKN250
     FM020400 VRB03KT 3SM FU SCT090 BKN250=

USA.gov is the U.S. government's official web portal to all federal, state and local government web resources and services.